sensor_id;sensor_type;location;lat;lon;timestamp;P1;durP1;ratioP1;P2;durP2;ratioP2
68744;SDS011;65497;45.454;11.064;2022-12-10T00:00:31;23.60;;;15.40;;
68744;SDS011;65497;45.454;11.064;2022-12-10T00:03:04;27.10;;;17.20;;
68744;SDS011;65497;45.454;11.064;2022-12-10T00:05:37;31.90;;;18.20;;
68744;SDS011;65497;45.454;11.064;2022-12-10T00:08:10;28.20;;;17.60;;
68744;SDS011;65497;45.454;11.064;2022-12-10T00:10:42;30.20;;;17.70;;
68744;SDS011;65497;45.454;11.064;2022-12-10T00:13:15;27.80;;;16.80;;
68744;SDS011;65497;45.454;11.064;2022-12-10T00:15:48;28.60;;;16.90;;
68744;SDS011;65497;45.454;11.064;2022-12-10T00:18:21;27.20;;;15.70;;
68744;SDS011;65497;45.454;11.064;2022-12-10T00:20:54;25.30;;;16.50;;
68744;SDS011;65497;45.454;11.064;2022-12-10T00:23:26;32.10;;;19.70;;
68744;SDS011;65497;45.454;11.064;2022-12-10T00:26:05;32.70;;;18.90;;
68744;SDS011;65497;45.454;11.064;2022-12-10T00:28:39;27.80;;;16.20;;
68744;SDS011;65497;45.454;11.064;2022-12-10T00:31:14;30.20;;;17.40;;
68744;SDS011;65497;45.454;11.064;2022-12-10T00:33:49;27.50;;;15.90;;
68744;SDS011;65497;45.454;11.064;2022-12-10T00:36:25;29.40;;;17.10;;
68744;SDS011;65497;45.454;11.064;2022-12-10T00:39:01;34.90;;;20.00;;
68744;SDS011;65497;45.454;11.064;2022-12-10T00:41:35;32.40;;;19.40;;
68744;SDS011;65497;45.454;11.064;2022-12-10T00:44:07;31.90;;;18.00;;
68744;SDS011;65497;45.454;11.064;2022-12-10T00:46:40;27.90;;;16.60;;
68744;SDS011;65497;45.454;11.064;2022-12-10T00:49:13;30.60;;;18.60;;
68744;SDS011;65497;45.454;11.064;2022-12-10T00:51:46;35.00;;;18.50;;
68744;SDS011;65497;45.454;11.064;2022-12-10T00:54:18;36.20;;;20.50;;
68744;SDS011;65497;45.454;11.064;2022-12-10T00:56:51;33.70;;;20.60;;
68744;SDS011;65497;45.454;11.064;2022-12-10T00:59:23;33.30;;;19.20;;
68744;SDS011;65497;45.454;11.064;2022-12-10T01:01:56;35.40;;;19.40;;
68744;SDS011;65497;45.454;11.064;2022-12-10T01:04:30;32.40;;;19.20;;
68744;SDS011;65497;45.454;11.064;2022-12-10T01:07:02;31.10;;;19.30;;
68744;SDS011;65497;45.454;11.064;2022-12-10T01:09:40;39.00;;;22.20;;
68744;SDS011;65497;45.454;11.064;2022-12-10T01:12:12;34.40;;;19.70;;
68744;SDS011;65497;45.454;11.064;2022-12-10T01:14:44;34.80;;;20.30;;
68744;SDS011;65497;45.454;11.064;2022-12-10T01:17:18;34.50;;;20.40;;
68744;SDS011;65497;45.454;11.064;2022-12-10T01:19:51;31.00;;;18.60;;
68744;SDS011;65497;45.454;11.064;2022-12-10T01:22:23;30.30;;;17.60;;
68744;SDS011;65497;45.454;11.064;2022-12-10T01:24:56;31.30;;;16.60;;
68744;SDS011;65497;45.454;11.064;2022-12-10T01:27:29;39.60;;;22.10;;
68744;SDS011;65497;45.454;11.064;2022-12-10T01:30:01;36.10;;;20.90;;
68744;SDS011;65497;45.454;11.064;2022-12-10T01:32:38;33.70;;;20.00;;
68744;SDS011;65497;45.454;11.064;2022-12-10T01:35:10;34.50;;;18.70;;
68744;SDS011;65497;45.454;11.064;2022-12-10T01:37:43;35.50;;;20.00;;
68744;SDS011;65497;45.454;11.064;2022-12-10T01:40:16;35.10;;;21.50;;
68744;SDS011;65497;45.454;11.064;2022-12-10T01:42:49;35.30;;;20.00;;
68744;SDS011;65497;45.454;11.064;2022-12-10T01:45:21;41.60;;;23.60;;
68744;SDS011;65497;45.454;11.064;2022-12-10T01:47:54;34.70;;;20.40;;
68744;SDS011;65497;45.454;11.064;2022-12-10T01:50:35;36.10;;;20.10;;
68744;SDS011;65497;45.454;11.064;2022-12-10T01:53:07;33.30;;;19.30;;
68744;SDS011;65497;45.454;11.064;2022-12-10T01:55:47;31.70;;;18.50;;
68744;SDS011;65497;45.454;11.064;2022-12-10T01:58:21;30.60;;;18.80;;
68744;SDS011;65497;45.454;11.064;2022-12-10T02:01:01;26.10;;;14.80;;
68744;SDS011;65497;45.454;11.064;2022-12-10T02:03:49;39.30;;;20.10;;
68744;SDS011;65497;45.454;11.064;2022-12-10T02:06:36;38.50;;;22.30;;
68744;SDS011;65497;45.454;11.064;2022-12-10T02:09:22;37.40;;;19.80;;
68744;SDS011;65497;45.454;11.064;2022-12-10T02:12:07;32.30;;;17.90;;
68744;SDS011;65497;45.454;11.064;2022-12-10T02:14:54;30.70;;;17.80;;
68744;SDS011;65497;45.454;11.064;2022-12-10T02:17:34;30.60;;;16.50;;
68744;SDS011;65497;45.454;11.064;2022-12-10T02:20:15;42.30;;;22.50;;
68744;SDS011;65497;45.454;11.064;2022-12-10T02:22:54;43.20;;;23.70;;
68744;SDS011;65497;45.454;11.064;2022-12-10T02:25:40;36.90;;;21.30;;
68744;SDS011;65497;45.454;11.064;2022-12-10T02:28:19;41.60;;;21.50;;
68744;SDS011;65497;45.454;11.064;2022-12-10T02:31:00;39.20;;;21.50;;
68744;SDS011;65497;45.454;11.064;2022-12-10T02:33:37;40.10;;;22.00;;
68744;SDS011;65497;45.454;11.064;2022-12-10T02:36:14;48.00;;;25.70;;
68744;SDS011;65497;45.454;11.064;2022-12-10T02:38:51;43.80;;;24.40;;
68744;SDS011;65497;45.454;11.064;2022-12-10T02:41:28;44.70;;;23.60;;
68744;SDS011;65497;45.454;11.064;2022-12-10T02:44:10;44.90;;;24.10;;
68744;SDS011;65497;45.454;11.064;2022-12-10T02:46:49;42.00;;;21.90;;
68744;SDS011;65497;45.454;11.064;2022-12-10T02:49:25;45.90;;;24.70;;
68744;SDS011;65497;45.454;11.064;2022-12-10T02:52:08;45.60;;;24.60;;
68744;SDS011;65497;45.454;11.064;2022-12-10T02:54:46;46.10;;;24.70;;
68744;SDS011;65497;45.454;11.064;2022-12-10T02:57:30;46.40;;;25.90;;
68744;SDS011;65497;45.454;11.064;2022-12-10T03:00:14;40.90;;;22.60;;
68744;SDS011;65497;45.454;11.064;2022-12-10T03:03:23;51.20;;;26.80;;
68744;SDS011;65497;45.454;11.064;2022-12-10T03:06:08;51.60;;;25.70;;
68744;SDS011;65497;45.454;11.064;2022-12-10T03:08:50;43.50;;;24.40;;
68744;SDS011;65497;45.454;11.064;2022-12-10T03:11:26;42.20;;;23.20;;
68744;SDS011;65497;45.454;11.064;2022-12-10T03:14:02;43.20;;;23.30;;
68744;SDS011;65497;45.454;11.064;2022-12-10T03:16:42;47.30;;;24.60;;
68744;SDS011;65497;45.454;11.064;2022-12-10T03:19:21;46.10;;;24.50;;
68744;SDS011;65497;45.454;11.064;2022-12-10T03:22:00;48.80;;;25.30;;
68744;SDS011;65497;45.454;11.064;2022-12-10T03:24:36;42.10;;;22.90;;
68744;SDS011;65497;45.454;11.064;2022-12-10T03:27:12;40.70;;;22.30;;
68744;SDS011;65497;45.454;11.064;2022-12-10T03:29:48;39.70;;;21.20;;
68744;SDS011;65497;45.454;11.064;2022-12-10T03:32:26;49.00;;;24.30;;
68744;SDS011;65497;45.454;11.064;2022-12-10T03:35:01;48.40;;;25.10;;
68744;SDS011;65497;45.454;11.064;2022-12-10T03:37:35;43.70;;;22.10;;
68744;SDS011;65497;45.454;11.064;2022-12-10T03:40:11;38.20;;;20.10;;
68744;SDS011;65497;45.454;11.064;2022-12-10T03:42:44;44.60;;;24.10;;
68744;SDS011;65497;45.454;11.064;2022-12-10T03:45:16;54.20;;;26.90;;
68744;SDS011;65497;45.454;11.064;2022-12-10T03:47:50;51.40;;;25.00;;
68744;SDS011;65497;45.454;11.064;2022-12-10T03:50:22;45.80;;;22.90;;
68744;SDS011;65497;45.454;11.064;2022-12-10T03:52:55;40.70;;;20.70;;
68744;SDS011;65497;45.454;11.064;2022-12-10T03:55:27;42.50;;;21.90;;
68744;SDS011;65497;45.454;11.064;2022-12-10T03:58:02;46.40;;;24.00;;
68744;SDS011;65497;45.454;11.064;2022-12-10T04:00:34;61.50;;;29.30;;
68744;SDS011;65497;45.454;11.064;2022-12-10T04:03:07;57.10;;;27.50;;
68744;SDS011;65497;45.454;11.064;2022-12-10T04:05:40;39.10;;;20.10;;
68744;SDS011;65497;45.454;11.064;2022-12-10T04:08:13;47.40;;;26.00;;
68744;SDS011;65497;45.454;11.064;2022-12-10T04:10:45;42.80;;;23.20;;
68744;SDS011;65497;45.454;11.064;2022-12-10T04:13:18;44.70;;;23.90;;
68744;SDS011;65497;45.454;11.064;2022-12-10T04:16:08;52.20;;;27.30;;
68744;SDS011;65497;45.454;11.064;2022-12-10T04:19:01;48.40;;;25.40;;
68744;SDS011;65497;45.454;11.064;2022-12-10T04:21:37;45.00;;;23.70;;
68744;SDS011;65497;45.454;11.064;2022-12-10T04:24:32;36.20;;;20.90;;
68744;SDS011;65497;45.454;11.064;2022-12-10T04:27:31;35.20;;;19.10;;
68744;SDS011;65497;45.454;11.064;2022-12-10T04:30:09;47.00;;;23.60;;
68744;SDS011;65497;45.454;11.064;2022-12-10T04:32:43;54.20;;;27.70;;
68744;SDS011;65497;45.454;11.064;2022-12-10T04:35:15;52.90;;;26.60;;
68744;SDS011;65497;45.454;11.064;2022-12-10T04:37:48;47.30;;;25.90;;
68744;SDS011;65497;45.454;11.064;2022-12-10T04:40:21;47.20;;;24.70;;
68744;SDS011;65497;45.454;11.064;2022-12-10T04:42:53;47.10;;;24.70;;
68744;SDS011;65497;45.454;11.064;2022-12-10T04:45:25;42.50;;;23.20;;
68744;SDS011;65497;45.454;11.064;2022-12-10T04:47:58;45.10;;;22.90;;
68744;SDS011;65497;45.454;11.064;2022-12-10T04:50:30;53.30;;;27.40;;
68744;SDS011;65497;45.454;11.064;2022-12-10T04:53:03;54.30;;;27.10;;
68744;SDS011;65497;45.454;11.064;2022-12-10T04:55:36;45.90;;;23.90;;
68744;SDS011;65497;45.454;11.064;2022-12-10T04:58:08;45.60;;;23.30;;
68744;SDS011;65497;45.454;11.064;2022-12-10T05:00:41;47.60;;;25.40;;
68744;SDS011;65497;45.454;11.064;2022-12-10T05:03:13;40.40;;;22.30;;
68744;SDS011;65497;45.454;11.064;2022-12-10T05:05:46;38.40;;;21.10;;
68744;SDS011;65497;45.454;11.064;2022-12-10T05:08:18;57.20;;;28.80;;
68744;SDS011;65497;45.454;11.064;2022-12-10T05:10:51;55.60;;;28.10;;
68744;SDS011;65497;45.454;11.064;2022-12-10T05:13:23;48.80;;;25.20;;
68744;SDS011;65497;45.454;11.064;2022-12-10T05:15:57;52.00;;;26.70;;
68744;SDS011;65497;45.454;11.064;2022-12-10T05:18:32;47.40;;;24.10;;
68744;SDS011;65497;45.454;11.064;2022-12-10T05:21:06;42.20;;;22.20;;
68744;SDS011;65497;45.454;11.064;2022-12-10T05:23:44;48.80;;;24.40;;
68744;SDS011;65497;45.454;11.064;2022-12-10T05:26:21;53.80;;;28.40;;
68744;SDS011;65497;45.454;11.064;2022-12-10T05:28:56;52.80;;;26.40;;
68744;SDS011;65497;45.454;11.064;2022-12-10T05:31:30;50.20;;;26.20;;
68744;SDS011;65497;45.454;11.064;2022-12-10T05:34:03;47.10;;;24.30;;
68744;SDS011;65497;45.454;11.064;2022-12-10T05:36:37;40.60;;;20.40;;
68744;SDS011;65497;45.454;11.064;2022-12-10T05:39:11;34.80;;;20.00;;
68744;SDS011;65497;45.454;11.064;2022-12-10T05:41:44;40.20;;;22.00;;
68744;SDS011;65497;45.454;11.064;2022-12-10T05:44:17;51.70;;;25.70;;
68744;SDS011;65497;45.454;11.064;2022-12-10T05:46:49;60.10;;;27.50;;
68744;SDS011;65497;45.454;11.064;2022-12-10T05:49:24;52.70;;;25.30;;
68744;SDS011;65497;45.454;11.064;2022-12-10T05:51:57;52.90;;;26.10;;
68744;SDS011;65497;45.454;11.064;2022-12-10T05:54:29;54.90;;;26.50;;
68744;SDS011;65497;45.454;11.064;2022-12-10T05:57:02;53.00;;;26.50;;
68744;SDS011;65497;45.454;11.064;2022-12-10T05:59:34;48.60;;;24.10;;
68744;SDS011;65497;45.454;11.064;2022-12-10T06:02:08;43.00;;;21.20;;
68744;SDS011;65497;45.454;11.064;2022-12-10T06:04:41;60.90;;;28.80;;
68744;SDS011;65497;45.454;11.064;2022-12-10T06:07:14;62.00;;;30.50;;
68744;SDS011;65497;45.454;11.064;2022-12-10T06:09:46;54.50;;;27.20;;
68744;SDS011;65497;45.454;11.064;2022-12-10T06:12:19;53.80;;;26.00;;
68744;SDS011;65497;45.454;11.064;2022-12-10T06:14:51;50.60;;;25.60;;
68744;SDS011;65497;45.454;11.064;2022-12-10T06:17:24;47.10;;;23.90;;
68744;SDS011;65497;45.454;11.064;2022-12-10T06:19:57;48.50;;;25.20;;
68744;SDS011;65497;45.454;11.064;2022-12-10T06:22:29;46.40;;;24.60;;
68744;SDS011;65497;45.454;11.064;2022-12-10T06:25:02;55.30;;;29.70;;
68744;SDS011;65497;45.454;11.064;2022-12-10T06:27:36;53.50;;;28.70;;
68744;SDS011;65497;45.454;11.064;2022-12-10T06:30:11;45.90;;;25.20;;
68744;SDS011;65497;45.454;11.064;2022-12-10T06:32:44;45.10;;;24.20;;
68744;SDS011;65497;45.454;11.064;2022-12-10T06:35:17;51.50;;;25.00;;
68744;SDS011;65497;45.454;11.064;2022-12-10T06:37:50;44.30;;;23.00;;
68744;SDS011;65497;45.454;11.064;2022-12-10T06:40:23;47.60;;;24.50;;
68744;SDS011;65497;45.454;11.064;2022-12-10T06:42:56;59.90;;;28.10;;
68744;SDS011;65497;45.454;11.064;2022-12-10T06:45:28;59.00;;;29.40;;
68744;SDS011;65497;45.454;11.064;2022-12-10T06:48:01;50.50;;;26.50;;
68744;SDS011;65497;45.454;11.064;2022-12-10T06:50:35;52.20;;;26.90;;
68744;SDS011;65497;45.454;11.064;2022-12-10T06:53:08;52.50;;;27.60;;
68744;SDS011;65497;45.454;11.064;2022-12-10T06:55:40;57.90;;;28.50;;
68744;SDS011;65497;45.454;11.064;2022-12-10T06:58:13;63.10;;;31.00;;
68744;SDS011;65497;45.454;11.064;2022-12-10T07:00:46;59.30;;;28.80;;
68744;SDS011;65497;45.454;11.064;2022-12-10T07:03:19;59.00;;;29.20;;
68744;SDS011;65497;45.454;11.064;2022-12-10T07:05:51;52.00;;;26.50;;
68744;SDS011;65497;45.454;11.064;2022-12-10T07:08:27;52.40;;;26.90;;
68744;SDS011;65497;45.454;11.064;2022-12-10T07:11:02;50.80;;;26.80;;
68744;SDS011;65497;45.454;11.064;2022-12-10T07:13:37;71.00;;;32.30;;
68744;SDS011;65497;45.454;11.064;2022-12-10T07:16:15;67.30;;;32.60;;
68744;SDS011;65497;45.454;11.064;2022-12-10T07:18:50;52.00;;;28.40;;
68744;SDS011;65497;45.454;11.064;2022-12-10T07:21:25;57.00;;;29.00;;
68744;SDS011;65497;45.454;11.064;2022-12-10T07:24:01;51.00;;;26.90;;
68744;SDS011;65497;45.454;11.064;2022-12-10T07:26:36;50.40;;;26.70;;
68744;SDS011;65497;45.454;11.064;2022-12-10T07:29:14;47.70;;;25.10;;
68744;SDS011;65497;45.454;11.064;2022-12-10T07:31:48;58.40;;;29.50;;
68744;SDS011;65497;45.454;11.064;2022-12-10T07:34:21;56.50;;;29.50;;
68744;SDS011;65497;45.454;11.064;2022-12-10T07:36:54;57.60;;;26.90;;
68744;SDS011;65497;45.454;11.064;2022-12-10T07:39:26;51.80;;;25.00;;
68744;SDS011;65497;45.454;11.064;2022-12-10T07:41:59;51.80;;;26.10;;
68744;SDS011;65497;45.454;11.064;2022-12-10T07:44:32;51.10;;;26.20;;
68744;SDS011;65497;45.454;11.064;2022-12-10T07:47:05;45.40;;;23.00;;
68744;SDS011;65497;45.454;11.064;2022-12-10T07:49:37;54.00;;;26.10;;
68744;SDS011;65497;45.454;11.064;2022-12-10T07:52:11;58.80;;;28.70;;
68744;SDS011;65497;45.454;11.064;2022-12-10T07:54:44;61.80;;;29.20;;
68744;SDS011;65497;45.454;11.064;2022-12-10T07:57:17;51.00;;;26.20;;
68744;SDS011;65497;45.454;11.064;2022-12-10T07:59:49;51.50;;;25.80;;
68744;SDS011;65497;45.454;11.064;2022-12-10T08:02:22;48.10;;;23.60;;
68744;SDS011;65497;45.454;11.064;2022-12-10T08:04:55;48.90;;;25.10;;
68744;SDS011;65497;45.454;11.064;2022-12-10T08:07:27;59.20;;;28.20;;
68744;SDS011;65497;45.454;11.064;2022-12-10T08:10:00;52.70;;;27.60;;
68744;SDS011;65497;45.454;11.064;2022-12-10T08:12:33;51.90;;;26.50;;
68744;SDS011;65497;45.454;11.064;2022-12-10T08:15:07;47.40;;;25.10;;
68744;SDS011;65497;45.454;11.064;2022-12-10T08:17:40;46.50;;;25.60;;
68744;SDS011;65497;45.454;11.064;2022-12-10T08:20:13;46.50;;;24.60;;
68744;SDS011;65497;45.454;11.064;2022-12-10T08:22:45;54.20;;;27.00;;
68744;SDS011;65497;45.454;11.064;2022-12-10T08:25:18;50.90;;;26.30;;
68744;SDS011;65497;45.454;11.064;2022-12-10T08:27:50;44.90;;;25.00;;
68744;SDS011;65497;45.454;11.064;2022-12-10T08:30:23;46.40;;;24.20;;
68744;SDS011;65497;45.454;11.064;2022-12-10T08:32:55;42.70;;;23.70;;
68744;SDS011;65497;45.454;11.064;2022-12-10T08:35:28;40.60;;;22.40;;
68744;SDS011;65497;45.454;11.064;2022-12-10T08:38:01;44.30;;;23.70;;
68744;SDS011;65497;45.454;11.064;2022-12-10T08:40:37;41.40;;;22.40;;
68744;SDS011;65497;45.454;11.064;2022-12-10T08:43:11;50.30;;;26.00;;
68744;SDS011;65497;45.454;11.064;2022-12-10T08:45:43;48.00;;;24.50;;
68744;SDS011;65497;45.454;11.064;2022-12-10T08:48:16;42.60;;;24.00;;
68744;SDS011;65497;45.454;11.064;2022-12-10T08:50:48;35.70;;;20.90;;
68744;SDS011;65497;45.454;11.064;2022-12-10T08:53:21;41.40;;;22.40;;
68744;SDS011;65497;45.454;11.064;2022-12-10T08:55:54;40.90;;;21.30;;
68744;SDS011;65497;45.454;11.064;2022-12-10T08:58:27;35.60;;;19.60;;
68744;SDS011;65497;45.454;11.064;2022-12-10T09:01:00;41.50;;;22.30;;
68744;SDS011;65497;45.454;11.064;2022-12-10T09:03:38;51.00;;;25.80;;
68744;SDS011;65497;45.454;11.064;2022-12-10T09:06:13;51.00;;;26.00;;
68744;SDS011;65497;45.454;11.064;2022-12-10T09:08:47;54.10;;;26.90;;
68744;SDS011;65497;45.454;11.064;2022-12-10T09:11:22;46.10;;;23.80;;
68744;SDS011;65497;45.454;11.064;2022-12-10T09:13:56;50.50;;;25.20;;
68744;SDS011;65497;45.454;11.064;2022-12-10T09:16:34;47.80;;;24.00;;
68744;SDS011;65497;45.454;11.064;2022-12-10T09:19:08;38.90;;;19.70;;
68744;SDS011;65497;45.454;11.064;2022-12-10T09:21:48;55.60;;;27.60;;
68744;SDS011;65497;45.454;11.064;2022-12-10T09:24:20;54.60;;;27.40;;
68744;SDS011;65497;45.454;11.064;2022-12-10T09:26:53;55.60;;;26.00;;
68744;SDS011;65497;45.454;11.064;2022-12-10T09:29:26;49.40;;;26.00;;
68744;SDS011;65497;45.454;11.064;2022-12-10T09:31:58;39.10;;;20.10;;
68744;SDS011;65497;45.454;11.064;2022-12-10T09:34:31;38.10;;;21.10;;
68744;SDS011;65497;45.454;11.064;2022-12-10T09:37:04;44.30;;;22.90;;
68744;SDS011;65497;45.454;11.064;2022-12-10T09:39:37;60.60;;;28.10;;
68744;SDS011;65497;45.454;11.064;2022-12-10T09:42:20;58.50;;;28.90;;
68744;SDS011;65497;45.454;11.064;2022-12-10T09:45:09;50.40;;;25.70;;
68744;SDS011;65497;45.454;11.064;2022-12-10T09:47:55;47.10;;;25.00;;
68744;SDS011;65497;45.454;11.064;2022-12-10T09:50:37;46.70;;;23.60;;
68744;SDS011;65497;45.454;11.064;2022-12-10T09:53:20;45.20;;;24.60;;
68744;SDS011;65497;45.454;11.064;2022-12-10T09:55:54;44.30;;;24.30;;
68744;SDS011;65497;45.454;11.064;2022-12-10T09:58:29;57.90;;;27.20;;
68744;SDS011;65497;45.454;11.064;2022-12-10T10:01:04;46.70;;;25.00;;
68744;SDS011;65497;45.454;11.064;2022-12-10T10:03:43;45.40;;;24.00;;
68744;SDS011;65497;45.454;11.064;2022-12-10T10:06:18;42.60;;;24.20;;
68744;SDS011;65497;45.454;11.064;2022-12-10T10:08:53;45.60;;;23.80;;
68744;SDS011;65497;45.454;11.064;2022-12-10T10:11:32;46.70;;;23.70;;
68744;SDS011;65497;45.454;11.064;2022-12-10T10:14:10;51.70;;;27.30;;
68744;SDS011;65497;45.454;11.064;2022-12-10T10:16:50;47.50;;;25.40;;
68744;SDS011;65497;45.454;11.064;2022-12-10T10:19:29;45.60;;;24.30;;
68744;SDS011;65497;45.454;11.064;2022-12-10T10:22:07;43.40;;;24.80;;
68744;SDS011;65497;45.454;11.064;2022-12-10T10:24:43;46.40;;;25.40;;
68744;SDS011;65497;45.454;11.064;2022-12-10T10:27:19;45.70;;;23.30;;
68744;SDS011;65497;45.454;11.064;2022-12-10T10:29:58;50.60;;;27.50;;
68744;SDS011;65497;45.454;11.064;2022-12-10T10:32:49;49.90;;;25.00;;
68744;SDS011;65497;45.454;11.064;2022-12-10T10:35:29;49.60;;;25.70;;
68744;SDS011;65497;45.454;11.064;2022-12-10T10:38:07;40.30;;;21.80;;
68744;SDS011;65497;45.454;11.064;2022-12-10T10:40:45;40.10;;;22.30;;
68744;SDS011;65497;45.454;11.064;2022-12-10T10:43:24;39.90;;;23.00;;
68744;SDS011;65497;45.454;11.064;2022-12-10T10:46:03;40.50;;;22.60;;
68744;SDS011;65497;45.454;11.064;2022-12-10T10:48:42;48.00;;;26.10;;
68744;SDS011;65497;45.454;11.064;2022-12-10T10:51:20;44.10;;;24.70;;
68744;SDS011;65497;45.454;11.064;2022-12-10T10:53:56;43.40;;;23.60;;
68744;SDS011;65497;45.454;11.064;2022-12-10T10:56:40;42.30;;;24.20;;
68744;SDS011;65497;45.454;11.064;2022-12-10T10:59:31;40.00;;;23.00;;
68744;SDS011;65497;45.454;11.064;2022-12-10T11:02:17;37.20;;;20.80;;
68744;SDS011;65497;45.454;11.064;2022-12-10T11:04:54;39.60;;;22.50;;
68744;SDS011;65497;45.454;11.064;2022-12-10T11:07:35;42.70;;;23.30;;
68744;SDS011;65497;45.454;11.064;2022-12-10T11:10:20;36.40;;;21.40;;
68744;SDS011;65497;45.454;11.064;2022-12-10T11:12:57;38.50;;;22.50;;
68744;SDS011;65497;45.454;11.064;2022-12-10T11:15:36;36.50;;;20.90;;
68744;SDS011;65497;45.454;11.064;2022-12-10T11:18:26;35.40;;;21.30;;
68744;SDS011;65497;45.454;11.064;2022-12-10T11:21:05;33.30;;;19.20;;
68744;SDS011;65497;45.454;11.064;2022-12-10T11:23:49;37.20;;;21.70;;
68744;SDS011;65497;45.454;11.064;2022-12-10T11:26:39;34.80;;;19.90;;
68744;SDS011;65497;45.454;11.064;2022-12-10T11:29:32;33.60;;;20.00;;
68744;SDS011;65497;45.454;11.064;2022-12-10T11:32:26;30.50;;;17.80;;
68744;SDS011;65497;45.454;11.064;2022-12-10T11:35:31;28.40;;;18.00;;
68744;SDS011;65497;45.454;11.064;2022-12-10T11:38:23;26.40;;;16.50;;
68744;SDS011;65497;45.454;11.064;2022-12-10T11:41:04;29.50;;;17.20;;
68744;SDS011;65497;45.454;11.064;2022-12-10T11:44:15;25.90;;;16.00;;
68744;SDS011;65497;45.454;11.064;2022-12-10T11:47:16;22.80;;;14.20;;
68744;SDS011;65497;45.454;11.064;2022-12-10T11:50:08;19.60;;;13.10;;
68744;SDS011;65497;45.454;11.064;2022-12-10T11:53:00;16.60;;;12.10;;
68744;SDS011;65497;45.454;11.064;2022-12-10T11:55:49;16.30;;;11.70;;
68744;SDS011;65497;45.454;11.064;2022-12-10T11:58:39;15.30;;;10.80;;
68744;SDS011;65497;45.454;11.064;2022-12-10T12:01:31;19.30;;;12.00;;
68744;SDS011;65497;45.454;11.064;2022-12-10T12:04:30;18.20;;;12.00;;
68744;SDS011;65497;45.454;11.064;2022-12-10T12:07:27;22.00;;;13.50;;
68744;SDS011;65497;45.454;11.064;2022-12-10T12:10:50;21.80;;;14.80;;
68744;SDS011;65497;45.454;11.064;2022-12-10T12:13:35;22.40;;;14.00;;
68744;SDS011;65497;45.454;11.064;2022-12-10T12:16:14;19.20;;;12.00;;
68744;SDS011;65497;45.454;11.064;2022-12-10T12:18:54;20.10;;;10.60;;
68744;SDS011;65497;45.454;11.064;2022-12-10T12:21:30;22.00;;;12.90;;
68744;SDS011;65497;45.454;11.064;2022-12-10T12:24:06;19.70;;;13.30;;
68744;SDS011;65497;45.454;11.064;2022-12-10T12:26:50;23.80;;;14.00;;
68744;SDS011;65497;45.454;11.064;2022-12-10T12:29:30;22.90;;;15.20;;
68744;SDS011;65497;45.454;11.064;2022-12-10T12:32:13;23.80;;;15.50;;
68744;SDS011;65497;45.454;11.064;2022-12-10T12:34:55;21.90;;;15.30;;
68744;SDS011;65497;45.454;11.064;2022-12-10T12:37:37;22.40;;;14.50;;
68744;SDS011;65497;45.454;11.064;2022-12-10T12:40:14;21.60;;;14.00;;
68744;SDS011;65497;45.454;11.064;2022-12-10T12:42:58;22.90;;;14.60;;
68744;SDS011;65497;45.454;11.064;2022-12-10T12:45:38;20.60;;;13.70;;
68744;SDS011;65497;45.454;11.064;2022-12-10T12:48:22;26.30;;;16.30;;
68744;SDS011;65497;45.454;11.064;2022-12-10T12:51:03;24.10;;;16.00;;
68744;SDS011;65497;45.454;11.064;2022-12-10T12:53:43;24.50;;;15.20;;
68744;SDS011;65497;45.454;11.064;2022-12-10T12:56:21;22.90;;;14.90;;
68744;SDS011;65497;45.454;11.064;2022-12-10T12:59:06;22.90;;;15.30;;
68744;SDS011;65497;45.454;11.064;2022-12-10T13:01:47;20.80;;;14.40;;
68744;SDS011;65497;45.454;11.064;2022-12-10T13:04:24;20.90;;;13.80;;
68744;SDS011;65497;45.454;11.064;2022-12-10T13:07:30;26.50;;;16.60;;
68744;SDS011;65497;45.454;11.064;2022-12-10T13:10:23;23.50;;;15.10;;
68744;SDS011;65497;45.454;11.064;2022-12-10T13:13:24;22.10;;;14.80;;
68744;SDS011;65497;45.454;11.064;2022-12-10T13:16:35;22.10;;;14.70;;
68744;SDS011;65497;45.454;11.064;2022-12-10T13:19:30;18.90;;;13.10;;
68744;SDS011;65497;45.454;11.064;2022-12-10T13:22:10;20.70;;;14.10;;
68744;SDS011;65497;45.454;11.064;2022-12-10T13:25:12;21.40;;;13.90;;
68744;SDS011;65497;45.454;11.064;2022-12-10T13:27:57;26.40;;;16.00;;
68744;SDS011;65497;45.454;11.064;2022-12-10T13:34:29;16.70;;;11.60;;
68744;SDS011;65497;45.454;11.064;2022-12-10T13:37:17;14.90;;;9.70;;
68744;SDS011;65497;45.454;11.064;2022-12-10T13:40:23;13.80;;;9.80;;
68744;SDS011;65497;45.454;11.064;2022-12-10T13:43:24;14.00;;;9.90;;
68744;SDS011;65497;45.454;11.064;2022-12-10T13:46:25;13.70;;;9.60;;
68744;SDS011;65497;45.454;11.064;2022-12-10T13:49:03;15.40;;;11.30;;
68744;SDS011;65497;45.454;11.064;2022-12-10T13:51:45;14.80;;;10.90;;
68744;SDS011;65497;45.454;11.064;2022-12-10T13:54:41;16.60;;;10.30;;
68744;SDS011;65497;45.454;11.064;2022-12-10T13:57:41;14.50;;;10.80;;
68744;SDS011;65497;45.454;11.064;2022-12-10T14:00:37;12.60;;;9.60;;
68744;SDS011;65497;45.454;11.064;2022-12-10T14:06:24;15.00;;;9.90;;
68744;SDS011;65497;45.454;11.064;2022-12-10T14:09:02;18.90;;;12.90;;
68744;SDS011;65497;45.454;11.064;2022-12-10T14:11:39;15.30;;;10.70;;
68744;SDS011;65497;45.454;11.064;2022-12-10T14:14:24;13.60;;;10.00;;
68744;SDS011;65497;45.454;11.064;2022-12-10T14:17:04;12.90;;;9.90;;
68744;SDS011;65497;45.454;11.064;2022-12-10T14:19:43;15.00;;;9.20;;
68744;SDS011;65497;45.454;11.064;2022-12-10T14:22:21;13.30;;;9.00;;
68744;SDS011;65497;45.454;11.064;2022-12-10T14:25:02;12.30;;;9.40;;
68744;SDS011;65497;45.454;11.064;2022-12-10T14:27:37;14.20;;;9.10;;
68744;SDS011;65497;45.454;11.064;2022-12-10T14:30:17;15.30;;;11.40;;
68744;SDS011;65497;45.454;11.064;2022-12-10T14:32:53;15.40;;;11.10;;
68744;SDS011;65497;45.454;11.064;2022-12-10T14:35:29;13.50;;;9.70;;
68744;SDS011;65497;45.454;11.064;2022-12-10T14:38:02;14.80;;;10.50;;
68744;SDS011;65497;45.454;11.064;2022-12-10T14:40:39;14.60;;;10.20;;
68744;SDS011;65497;45.454;11.064;2022-12-10T14:43:17;13.40;;;10.40;;
68744;SDS011;65497;45.454;11.064;2022-12-10T14:45:55;14.90;;;11.20;;
68744;SDS011;65497;45.454;11.064;2022-12-10T14:48:30;14.30;;;10.40;;
68744;SDS011;65497;45.454;11.064;2022-12-10T14:51:14;16.90;;;12.40;;
68744;SDS011;65497;45.454;11.064;2022-12-10T14:53:51;17.30;;;11.60;;
68744;SDS011;65497;45.454;11.064;2022-12-10T14:56:28;13.80;;;10.50;;
68744;SDS011;65497;45.454;11.064;2022-12-10T14:59:07;18.00;;;10.80;;
68744;SDS011;65497;45.454;11.064;2022-12-10T15:01:45;13.80;;;10.30;;
68744;SDS011;65497;45.454;11.064;2022-12-10T15:04:21;13.80;;;9.60;;
68744;SDS011;65497;45.454;11.064;2022-12-10T15:06:58;15.60;;;11.00;;
68744;SDS011;65497;45.454;11.064;2022-12-10T15:09:32;15.60;;;12.10;;
68744;SDS011;65497;45.454;11.064;2022-12-10T15:12:05;15.60;;;11.60;;
68744;SDS011;65497;45.454;11.064;2022-12-10T15:14:50;17.00;;;11.50;;
68744;SDS011;65497;45.454;11.064;2022-12-10T15:17:41;15.30;;;11.30;;